Time;durP1;ratioP1;P1;durP2;ratioP2;P2;SDS_P1;SDS_P2;PMS_P1;PMS_P2;Temp;Humidity;BMP_temperature;BMP_pressure;BME280_temperature;BME280_humidity;BME280_pressure;Samples;Min_cycle;Max_cycle;Signal;HPM_P1;HPM_P2
2022/04/13 00:01:29;;;;;;;7.22;2.50;;;20.10;43.60;;;;;;5135224;27;20039;-62
2022/04/13 00:03:55;;;;;;;2.88;2.00;;;20.10;43.60;;;;;;5135242;27;20015;-61
2022/04/13 00:06:21;;;;;;;2.97;2.05;;;20.10;43.60;;;;;;5099685;27;20403;-62
2022/04/13 00:08:47;;;;;;;3.25;1.88;;;20.10;43.70;;;;;;5134566;27;20023;-62
2022/04/13 00:11:13;;;;;;;5.03;2.40;;;20.10;43.60;;;;;;5116538;27;20019;-61
2022/04/13 00:13:40;;;;;;;3.90;2.40;;;20.10;43.60;;;;;;5134771;27;20025;-61
2022/04/13 00:16:07;;;;;;;3.80;2.13;;;20.10;43.60;;;;;;5134221;27;20385;-61
2022/04/13 00:18:32;;;;;;;3.63;2.13;;;20.10;43.60;;;;;;5134349;27;20366;-61
2022/04/13 00:20:59;;;;;;;5.30;2.22;;;20.10;43.60;;;;;;5116321;27;20019;-64
2022/04/13 00:23:27;;;;;;;3.70;2.45;;;20.10;43.70;;;;;;5115914;27;20043;-61
2022/04/13 00:25:53;;;;;;;3.05;2.13;;;20.10;43.70;;;;;;5134466;27;20015;-62
2022/04/13 00:28:19;;;;;;;4.07;2.10;;;20.10;43.70;;;;;;5115926;27;20492;-62
2022/04/13 00:30:45;;;;;;;3.95;2.53;;;20.10;43.70;;;;;;5116066;27;20405;-62
2022/04/13 00:33:10;;;;;;;4.65;2.30;;;20.10;43.70;;;;;;5115833;27;20047;-62
2022/04/13 00:35:37;;;;;;;3.28;2.20;;;20.10;43.70;;;;;;5115639;27;20019;-62
2022/04/13 00:38:03;;;;;;;4.65;2.17;;;20.10;43.70;;;;;;5134568;27;20012;-61
2022/04/13 00:40:30;;;;;;;4.30;2.33;;;20.10;43.70;;;;;;5134501;27;20042;-62
2022/04/13 00:42:56;;;;;;;3.42;2.03;;;20.10;43.70;;;;;;5134484;27;20007;-61
2022/04/13 00:45:22;;;;;;;6.55;2.60;;;20.10;43.80;;;;;;5134723;27;20042;-62
2022/04/13 00:47:48;;;;;;;4.15;2.47;;;20.10;43.80;;;;;;5133774;27;20102;-62
2022/04/13 00:50:14;;;;;;;3.28;2.10;;;20.10;43.70;;;;;;5115630;28;20115;-63
2022/04/13 00:52:42;;;;;;;2.78;1.90;;;20.10;43.80;;;;;;5115625;27;20138;-63
2022/04/13 00:55:09;;;;;;;7.75;2.08;;;20.10;43.70;;;;;;5098430;28;20110;-61
2022/04/13 00:57:36;;;;;;;3.47;1.92;;;20.10;43.80;;;;;;5134256;28;20008;-60
2022/04/13 01:00:03;;;;;;;2.75;1.88;;;20.10;43.80;;;;;;5134014;28;20480;-61
2022/04/13 01:02:29;;;;;;;5.05;2.22;;;20.10;43.80;;;;;;5133890;28;20147;-61
2022/04/13 01:04:55;;;;;;;3.95;2.25;;;20.10;43.80;;;;;;5098673;28;20098;-62
2022/04/13 01:07:20;;;;;;;2.92;2.08;;;20.10;43.80;;;;;;5099755;27;20037;-62
2022/04/13 01:09:47;;;;;;;4.47;2.30;;;20.00;43.90;;;;;;5119922;27;20093;-62
2022/04/13 01:12:13;;;;;;;2.78;2.10;;;20.00;43.80;;;;;;5120220;27;20116;-62
2022/04/13 01:14:39;;;;;;;3.75;2.10;;;20.00;43.90;;;;;;5138363;27;20119;-62
2022/04/13 01:17:05;;;;;;;3.25;2.08;;;20.00;43.90;;;;;;5138179;27;20372;-61
2022/04/13 01:19:32;;;;;;;2.90;1.80;;;20.00;43.90;;;;;;5102723;27;20016;-61
2022/04/13 01:22:03;;;;;;;3.38;2.10;;;20.00;43.90;;;;;;5119927;27;20027;-62
2022/04/13 01:24:32;;;;;;;3.88;2.22;;;20.00;43.90;;;;;;5120412;27;20083;-62
2022/04/13 01:26:59;;;;;;;4.15;2.40;;;20.00;43.90;;;;;;5138263;27;20015;-60
2022/04/13 01:29:25;;;;;;;3.08;2.10;;;20.00;43.90;;;;;;5138151;27;20015;-61
2022/04/13 01:31:53;;;;;;;2.80;1.58;;;20.00;43.90;;;;;;5138210;27;20030;-61
2022/04/13 01:34:19;;;;;;;3.35;2.10;;;20.00;44.00;;;;;;5120085;27;20086;-62
2022/04/13 01:36:46;;;;;;;2.90;2.30;;;20.00;43.90;;;;;;5137879;27;20019;-61
2022/04/13 01:39:12;;;;;;;3.85;2.00;;;20.00;43.90;;;;;;5119180;27;20015;-62
2022/04/13 01:41:39;;;;;;;4.78;2.30;;;20.00;43.90;;;;;;5137455;27;20530;-62
2022/04/13 01:44:07;;;;;;;4.22;2.00;;;20.00;44.00;;;;;;5137732;27;20016;-61
2022/04/13 01:46:33;;;;;;;3.08;2.22;;;20.00;43.90;;;;;;5137839;27;20019;-61
2022/04/13 01:48:59;;;;;;;3.28;2.40;;;20.00;43.90;;;;;;5102838;27;20381;-61
2022/04/13 01:51:25;;;;;;;3.60;2.38;;;20.00;43.90;;;;;;5119016;27;20385;-61
2022/04/13 01:53:51;;;;;;;3.58;2.20;;;20.00;44.00;;;;;;5119299;27;20412;-61
2022/04/13 01:56:17;;;;;;;3.95;2.40;;;20.00;44.00;;;;;;5137891;27;20027;-61
2022/04/13 01:58:43;;;;;;;5.18;2.30;;;20.00;44.00;;;;;;5137574;27;20068;-61
2022/04/13 02:01:09;;;;;;;4.05;2.28;;;20.00;44.00;;;;;;5137533;27;20011;-61
2022/04/13 02:03:35;;;;;;;4.07;2.60;;;20.00;44.00;;;;;;5137467;27;20015;-61
2022/04/13 02:06:03;;;;;;;3.72;2.17;;;20.00;44.00;;;;;;5137290;27;20026;-62
2022/04/13 02:08:29;;;;;;;4.72;2.20;;;20.00;44.10;;;;;;5136969;27;20023;-61
2022/04/13 02:10:54;;;;;;;3.90;1.92;;;20.00;44.10;;;;;;5118740;27;20110;-61
2022/04/13 02:13:21;;;;;;;2.55;1.90;;;20.00;44.10;;;;;;5137144;27;20106;-61
2022/04/13 02:15:48;;;;;;;5.40;1.95;;;19.90;44.10;;;;;;5119057;27;20047;-61
2022/04/13 02:18:14;;;;;;;3.83;2.47;;;20.00;44.70;;;;;;5137150;27;20047;-62
2022/04/13 02:20:40;;;;;;;3.78;2.15;;;19.90;44.10;;;;;;5137427;27;20086;-61
2022/04/13 02:23:06;;;;;;;4.88;2.42;;;19.90;44.10;;;;;;5118792;27;20464;-61
2022/04/13 02:25:35;;;;;;;3.72;2.00;;;19.90;44.10;;;;;;5137316;27;20071;-61
2022/04/13 02:28:05;;;;;;;5.70;2.58;;;19.90;44.10;;;;;;5137469;27;20049;-61
2022/04/13 02:30:31;;;;;;;3.40;2.35;;;20.00;44.10;;;;;;5136836;27;20023;-61
2022/04/13 02:33:01;;;;;;;3.03;2.40;;;19.90;44.10;;;;;;5136735;27;20035;-61
2022/04/13 02:35:27;;;;;;;3.63;2.03;;;19.90;44.70;;;;;;5136369;27;20034;-61
2022/04/13 02:37:54;;;;;;;3.17;2.00;;;19.90;44.10;;;;;;5137178;27;20011;-61
2022/04/13 02:40:20;;;;;;;3.97;2.03;;;19.90;44.10;;;;;;5137257;27;20026;-61
2022/04/13 02:42:47;;;;;;;2.67;2.05;;;19.90;44.10;;;;;;5137224;27;20015;-61
2022/04/13 02:45:14;;;;;;;3.63;2.15;;;19.90;44.70;;;;;;5136440;27;20023;-61
2022/04/13 02:47:40;;;;;;;3.47;2.42;;;19.90;44.10;;;;;;5118399;27;20027;-61
2022/04/13 02:50:07;;;;;;;3.47;2.40;;;19.90;44.20;;;;;;5118330;27;20042;-60
2022/04/13 02:52:36;;;;;;;3.15;2.28;;;19.90;44.10;;;;;;5136025;27;20106;-61
2022/04/13 02:55:02;;;;;;;3.33;1.98;;;19.90;44.20;;;;;;5136230;27;20051;-61
2022/04/13 02:57:29;;;;;;;3.65;2.38;;;19.90;44.20;;;;;;5136329;27;20492;-61
2022/04/13 02:59:57;;;;;;;4.50;2.50;;;19.90;44.20;;;;;;5135978;27;20015;-61
2022/04/13 03:02:29;;;;;;;5.32;2.33;;;19.90;44.20;;;;;;5135984;27;20007;-61
2022/04/13 03:04:54;;;;;;;3.72;2.20;;;19.90;44.20;;;;;;5136380;27;20023;-62
2022/04/13 03:07:22;;;;;;;3.92;2.33;;;19.90;44.20;;;;;;5135887;27;20014;-62
2022/04/13 03:09:48;;;;;;;4.60;2.30;;;19.90;44.30;;;;;;5118300;27;20484;-62
2022/04/13 03:12:15;;;;;;;3.35;2.20;;;19.90;44.20;;;;;;5118258;27;20019;-61
2022/04/13 03:14:42;;;;;;;2.80;2.28;;;19.90;44.20;;;;;;5136380;27;20051;-61
2022/04/13 03:17:08;;;;;;;3.47;2.45;;;19.90;44.30;;;;;;5136163;27;20015;-61
2022/04/13 03:19:35;;;;;;;3.78;2.45;;;19.90;44.30;;;;;;5136017;27;20022;-61
2022/04/13 03:22:02;;;;;;;4.63;2.58;;;19.90;44.30;;;;;;5136468;27;20081;-61
2022/04/13 03:24:27;;;;;;;3.33;2.25;;;19.90;44.30;;;;;;5118107;27;20070;-62
2022/04/13 03:26:53;;;;;;;3.30;2.20;;;19.90;44.40;;;;;;5135848;27;20414;-61
2022/04/13 03:29:19;;;;;;;4.45;2.60;;;19.90;44.30;;;;;;5117181;27;20027;-61
2022/04/13 03:31:45;;;;;;;3.10;2.30;;;19.90;44.40;;;;;;5117195;27;20378;-61
2022/04/13 03:34:11;;;;;;;4.13;2.40;;;19.90;44.30;;;;;;5135650;27;20011;-61
2022/04/13 03:36:40;;;;;;;5.22;2.05;;;19.90;44.30;;;;;;5100632;27;20034;-61
2022/04/13 03:39:08;;;;;;;4.72;2.58;;;19.90;44.30;;;;;;5118091;27;20090;-61
2022/04/13 03:41:35;;;;;;;3.35;2.00;;;19.90;44.40;;;;;;5117334;27;20019;-61
2022/04/13 03:44:01;;;;;;;4.28;2.25;;;19.90;44.40;;;;;;5135701;27;20007;-61
2022/04/13 03:46:27;;;;;;;4.03;1.95;;;19.80;44.40;;;;;;5135799;27;20023;-62
2022/04/13 03:48:53;;;;;;;3.40;2.38;;;19.90;44.50;;;;;;5135660;27;20504;-61
2022/04/13 03:51:20;;;;;;;6.88;2.60;;;19.90;44.40;;;;;;5117080;27;20015;-62
2022/04/13 03:53:46;;;;;;;4.22;2.30;;;19.80;44.40;;;;;;5117720;27;20043;-61
2022/04/13 03:56:12;;;;;;;3.47;2.50;;;19.80;44.50;;;;;;5135627;27;20057;-61
2022/04/13 03:58:40;;;;;;;4.53;2.70;;;19.80;44.40;;;;;;5116861;27;20015;-61
2022/04/13 04:01:07;;;;;;;5.45;2.45;;;19.80;44.50;;;;;;5135154;27;20462;-61
2022/04/13 04:03:34;;;;;;;5.22;2.10;;;19.80;45.00;;;;;;5135012;27;20012;-61
2022/04/13 04:06:00;;;;;;;4.72;2.28;;;19.80;44.50;;;;;;5116647;27;20043;-61
2022/04/13 04:08:27;;;;;;;5.40;2.50;;;19.80;44.50;;;;;;5135083;27;20026;-62
2022/04/13 04:10:53;;;;;;;4.07;2.60;;;19.80;44.50;;;;;;5134898;27;20015;-61
2022/04/13 04:13:20;;;;;;;4.03;2.88;;;19.80;44.50;;;;;;5134897;27;20664;-62
2022/04/13 04:15:46;;;;;;;3.53;2.38;;;19.80;44.50;;;;;;5116552;27;20015;-61
2022/04/13 04:18:12;;;;;;;4.25;2.65;;;19.80;44.50;;;;;;5134607;27;20026;-61
2022/04/13 04:20:39;;;;;;;6.63;2.13;;;19.80;44.60;;;;;;5134399;27;20090;-61
2022/04/13 04:23:04;;;;;;;5.13;2.25;;;19.80;44.60;;;;;;5134257;27;20039;-61
2022/04/13 04:25:31;;;;;;;4.50;2.60;;;19.80;44.60;;;;;;5134615;27;20035;-62
2022/04/13 04:27:57;;;;;;;3.63;2.63;;;19.80;44.60;;;;;;5098794;27;20546;-62
2022/04/13 04:30:23;;;;;;;3.42;2.28;;;19.80;44.60;;;;;;5134212;27;20054;-61
2022/04/13 04:32:48;;;;;;;4.30;2.60;;;19.80;44.60;;;;;;5134283;27;20043;-61
2022/04/13 04:35:14;;;;;;;3.65;2.42;;;19.80;44.60;;;;;;5134088;27;20054;-61
2022/04/13 04:37:40;;;;;;;4.00;2.45;;;19.80;44.60;;;;;;5134521;27;20019;-61
2022/04/13 04:40:07;;;;;;;3.70;2.70;;;19.80;44.70;;;;;;5116272;27;20021;-61
2022/04/13 04:42:46;;;;;;;3.00;2.30;;;19.80;44.60;;;;;;5115585;27;20011;-61
2022/04/13 04:45:13;;;;;;;3.67;2.25;;;19.70;44.60;;;;;;5134911;27;20030;-61
2022/04/13 04:47:39;;;;;;;4.13;2.28;;;19.80;44.60;;;;;;5116452;28;20042;-61
2022/04/13 04:50:06;;;;;;;4.45;2.78;;;19.80;45.30;;;;;;5115794;28;20070;-61
2022/04/13 04:52:33;;;;;;;3.30;2.22;;;19.70;44.70;;;;;;5099160;27;20110;-61
2022/04/13 04:54:59;;;;;;;3.05;2.22;;;19.70;44.60;;;;;;5115988;28;20019;-61
2022/04/13 04:57:25;;;;;;;3.10;2.38;;;19.80;44.70;;;;;;5134625;27;20012;-61
2022/04/13 04:59:52;;;;;;;4.40;2.80;;;19.70;44.70;;;;;;5134540;28;20107;-61
2022/04/13 05:02:18;;;;;;;4.22;2.33;;;19.70;44.70;;;;;;5134436;28;20052;-62
2022/04/13 05:04:44;;;;;;;4.05;2.50;;;19.80;44.80;;;;;;5134810;28;20019;-61
2022/04/13 05:07:11;;;;;;;3.60;2.58;;;19.70;44.70;;;;;;5116217;28;20019;-61
2022/04/13 05:09:36;;;;;;;5.05;2.30;;;19.70;44.70;;;;;;5082345;28;20034;-60
2022/04/13 05:12:03;;;;;;;3.35;2.00;;;19.70;44.70;;;;;;5116312;28;20094;-61
2022/04/13 05:14:29;;;;;;;2.97;2.47;;;19.70;44.70;;;;;;5134655;28;20098;-61
2022/04/13 05:16:56;;;;;;;3.05;2.33;;;19.80;44.80;;;;;;5134425;28;20012;-60
2022/04/13 05:19:21;;;;;;;4.07;2.47;;;19.70;44.70;;;;;;5116503;28;20107;-62
2022/04/13 05:21:51;;;;;;;3.40;2.30;;;19.70;44.70;;;;;;5116279;28;20008;-62
2022/04/13 05:24:17;;;;;;;4.07;2.40;;;19.70;44.80;;;;;;5134373;28;20072;-61
2022/04/13 05:26:42;;;;;;;3.72;2.28;;;19.70;44.80;;;;;;5115983;28;20023;-61
2022/04/13 05:29:08;;;;;;;2.97;2.20;;;19.70;44.80;;;;;;5134000;28;20073;-61
2022/04/13 05:31:34;;;;;;;2.95;2.42;;;19.70;44.80;;;;;;5098088;28;20084;-62
2022/04/13 05:33:59;;;;;;;4.10;2.58;;;19.70;44.80;;;;;;5115108;28;20026;-62
2022/04/13 05:36:26;;;;;;;5.43;2.50;;;19.70;44.80;;;;;;5133734;28;20031;-61
2022/04/13 05:38:52;;;;;;;4.28;2.60;;;19.70;44.80;;;;;;5133746;28;20064;-61
2022/04/13 05:41:18;;;;;;;2.70;2.13;;;19.70;44.80;;;;;;5133813;28;20019;-63
2022/04/13 05:43:44;;;;;;;3.88;2.47;;;19.70;44.80;;;;;;5133516;28;20057;-61
2022/04/13 05:46:10;;;;;;;4.45;2.78;;;19.80;44.90;;;;;;5133472;28;20099;-61
2022/04/13 05:48:36;;;;;;;3.90;2.42;;;19.80;44.70;;;;;;5115302;28;20042;-61
2022/04/13 05:51:02;;;;;;;4.15;2.80;;;19.90;44.70;;;;;;5115050;28;20362;-62
2022/04/13 05:53:28;;;;;;;3.67;2.70;;;19.90;44.40;;;;;;5134678;27;20024;-61
2022/04/13 05:55:56;;;;;;;2.80;2.17;;;20.00;44.40;;;;;;5137306;27;20027;-61
2022/04/13 05:58:27;;;;;;;4.40;2.60;;;20.00;44.30;;;;;;5137807;27;20115;-61
2022/04/13 06:00:53;;;;;;;4.15;2.55;;;20.00;44.20;;;;;;5118973;27;20015;-60
2022/04/13 06:03:20;;;;;;;4.85;2.47;;;20.10;44.20;;;;;;5119278;27;20099;-61
2022/04/13 06:05:46;;;;;;;3.50;2.28;;;20.20;44.10;;;;;;5137116;27;20544;-65
2022/04/13 06:08:12;;;;;;;3.08;2.78;;;20.20;44.00;;;;;;5137227;27;20022;-61
2022/04/13 06:10:38;;;;;;;3.55;2.25;;;20.30;43.90;;;;;;5138136;27;20022;-60
2022/04/13 06:13:05;;;;;;;4.22;2.70;;;20.40;44.40;;;;;;5137971;27;20043;-61
2022/04/13 06:15:31;;;;;;;3.35;2.40;;;20.40;43.70;;;;;;5137640;27;20066;-61
2022/04/13 06:17:58;;;;;;;6.35;2.88;;;20.50;43.70;;;;;;5137635;27;20035;-61
2022/04/13 06:20:25;;;;;;;3.28;2.50;;;20.50;43.60;;;;;;5137834;27;20072;-60
2022/04/13 06:22:52;;;;;;;3.15;2.60;;;20.50;43.50;;;;;;5119094;27;20039;-61
2022/04/13 06:25:18;;;;;;;4.28;2.72;;;20.50;43.50;;;;;;5137663;27;20112;-61
2022/04/13 06:27:44;;;;;;;5.10;3.20;;;20.60;43.50;;;;;;5137310;27;20049;-62
2022/04/13 06:30:10;;;;;;;4.70;2.58;;;20.60;43.40;;;;;;5136864;27;20019;-62
2022/04/13 06:32:41;;;;;;;5.18;2.80;;;20.70;43.30;;;;;;5118428;27;20020;-60
2022/04/13 06:35:08;;;;;;;5.38;3.22;;;20.70;43.60;;;;;;5137243;27;20043;-62
2022/04/13 06:37:36;;;;;;;3.50;2.50;;;20.60;43.30;;;;;;5118904;27;20500;-60
2022/04/13 06:40:02;;;;;;;5.60;3.08;;;20.70;43.40;;;;;;5136823;27;20035;-60
2022/04/13 06:42:34;;;;;;;4.53;2.55;;;20.70;43.40;;;;;;5136423;27;20087;-60
2022/04/13 06:45:00;;;;;;;4.15;2.60;;;20.70;43.40;;;;;;5136962;27;20019;-62
2022/04/13 06:47:29;;;;;;;5.32;2.80;;;20.70;43.30;;;;;;5136771;27;20016;-60
2022/04/13 06:49:55;;;;;;;3.55;2.38;;;20.70;43.30;;;;;;5136958;27;20019;-60
2022/04/13 06:52:22;;;;;;;3.28;2.42;;;20.70;43.30;;;;;;5118177;27;20027;-60
2022/04/13 06:54:47;;;;;;;3.80;2.40;;;20.80;43.40;;;;;;5136620;27;20496;-60
2022/04/13 06:57:13;;;;;;;7.43;2.83;;;20.80;43.40;;;;;;5136453;27;20019;-60
2022/04/13 06:59:40;;;;;;;5.18;2.88;;;20.80;43.20;;;;;;5136094;27;20008;-60
2022/04/13 07:02:12;;;;;;;3.80;2.40;;;20.80;43.20;;;;;;5135762;27;20008;-60
2022/04/13 07:04:39;;;;;;;2.95;2.30;;;20.90;43.30;;;;;;5135241;27;20018;-61
2022/04/13 07:07:05;;;;;;;4.32;2.35;;;20.90;43.30;;;;;;5136284;27;20008;-60
2022/04/13 07:09:30;;;;;;;3.30;2.40;;;20.90;43.30;;;;;;5136001;27;20024;-61
2022/04/13 07:11:56;;;;;;;5.18;2.35;;;20.90;43.20;;;;;;5135605;27;20097;-60
2022/04/13 07:14:22;;;;;;;5.93;2.80;;;20.90;43.20;;;;;;5117472;27;20026;-60
2022/04/13 07:16:49;;;;;;;3.97;2.40;;;21.00;43.30;;;;;;5135691;27;20076;-60
2022/04/13 07:19:15;;;;;;;4.25;2.80;;;21.00;43.20;;;;;;5117351;27;20137;-61
2022/04/13 07:21:41;;;;;;;3.75;2.47;;;21.00;43.20;;;;;;5117329;27;20015;-60
2022/04/13 07:24:10;;;;;;;3.95;2.50;;;21.00;43.30;;;;;;5117357;27;20036;-62
2022/04/13 07:26:37;;;;;;;3.65;2.78;;;21.00;43.30;;;;;;5117469;27;20023;-61
2022/04/13 07:29:03;;;;;;;7.78;2.72;;;21.00;43.30;;;;;;5135717;27;20500;-60
2022/04/13 07:31:29;;;;;;;3.63;2.40;;;21.10;43.20;;;;;;5117380;27;20027;-60
2022/04/13 07:33:56;;;;;;;4.35;2.35;;;21.10;43.20;;;;;;5135564;27;20102;-62
2022/04/13 07:36:22;;;;;;;3.13;2.50;;;21.10;43.20;;;;;;5135576;27;20027;-60
2022/04/13 07:38:50;;;;;;;3.83;2.78;;;21.10;43.20;;;;;;5135725;27;20060;-60
2022/04/13 07:41:16;;;;;;;5.85;2.78;;;21.10;43.20;;;;;;5118261;27;20470;-60
2022/04/13 07:43:44;;;;;;;2.90;2.15;;;21.10;43.30;;;;;;5135903;27;20015;-61
2022/04/13 07:46:10;;;;;;;5.65;2.40;;;21.10;43.30;;;;;;5135760;27;20030;-60
2022/04/13 07:48:35;;;;;;;3.55;2.40;;;21.20;43.40;;;;;;5136240;27;20039;-61
2022/04/13 07:51:02;;;;;;;4.13;2.58;;;21.20;43.40;;;;;;5100914;27;20023;-60
2022/04/13 07:53:28;;;;;;;3.75;2.50;;;21.20;43.40;;;;;;5116879;27;20374;-61
2022/04/13 07:55:53;;;;;;;4.72;2.38;;;21.20;43.50;;;;;;5099694;27;20031;-60
2022/04/13 07:58:20;;;;;;;4.05;2.83;;;21.20;43.40;;;;;;5135019;27;20106;-61
2022/04/13 08:00:46;;;;;;;5.82;2.60;;;21.10;43.50;;;;;;5134842;27;20019;-61
2022/04/13 08:03:12;;;;;;;4.90;2.53;;;21.10;43.60;;;;;;5134779;27;20027;-61
2022/04/13 08:05:40;;;;;;;4.82;2.92;;;21.10;43.70;;;;;;5134657;27;20021;-61
2022/04/13 08:08:06;;;;;;;3.47;2.47;;;21.10;43.80;;;;;;5134792;27;20496;-61
2022/04/13 08:10:34;;;;;;;5.38;2.40;;;21.10;43.90;;;;;;5134855;27;20102;-61
2022/04/13 08:13:00;;;;;;;6.43;2.80;;;21.10;43.90;;;;;;5135405;27;20018;-61
2022/04/13 08:15:26;;;;;;;3.83;2.35;;;21.10;44.00;;;;;;5116762;27;20031;-61
2022/04/13 08:17:52;;;;;;;3.95;2.83;;;21.10;44.00;;;;;;5135198;27;20078;-61
2022/04/13 08:20:18;;;;;;;5.55;2.90;;;21.10;44.10;;;;;;5135398;27;20020;-61
2022/04/13 08:22:49;;;;;;;5.68;2.90;;;21.00;44.20;;;;;;5135576;27;20073;-61
2022/04/13 08:25:14;;;;;;;4.65;2.65;;;21.00;44.40;;;;;;5117459;27;20090;-61
2022/04/13 08:27:40;;;;;;;5.78;2.63;;;21.00;44.40;;;;;;5136235;27;20098;-61
2022/04/13 08:30:07;;;;;;;6.32;2.60;;;21.00;44.40;;;;;;5117801;27;20015;-61
2022/04/13 08:32:33;;;;;;;4.13;2.35;;;21.10;44.50;;;;;;5117588;27;20050;-61
2022/04/13 08:34:59;;;;;;;3.92;2.70;;;21.10;44.40;;;;;;5135176;27;20050;-61
2022/04/13 08:37:29;;;;;;;4.18;2.55;;;21.10;44.40;;;;;;5116451;27;20024;-60
2022/04/13 08:39:57;;;;;;;4.82;2.47;;;21.10;44.40;;;;;;5116509;27;20013;-61
2022/04/13 08:42:23;;;;;;;5.80;2.88;;;21.10;44.40;;;;;;5134463;27;20446;-61
2022/04/13 08:44:50;;;;;;;3.95;2.35;;;21.20;44.40;;;;;;5134242;27;20019;-61
2022/04/13 08:47:23;;;;;;;4.20;2.33;;;21.20;44.50;;;;;;5134051;27;20023;-61
2022/04/13 08:49:51;;;;;;;4.07;2.70;;;21.20;44.70;;;;;;5134305;27;20026;-60
2022/04/13 08:52:37;;;;;;;5.60;3.00;;;21.20;44.60;;;;;;5134776;27;20471;-60
2022/04/13 08:55:06;;;;;;;5.20;2.88;;;21.20;44.60;;;;;;5134114;27;20027;-60
2022/04/13 08:57:41;;;;;;;6.25;3.03;;;21.30;44.70;;;;;;5134716;27;20039;-61
2022/04/13 09:00:11;;;;;;;4.85;2.53;;;21.20;44.70;;;;;;5134363;27;20038;-61
2022/04/13 09:02:58;;;;;;;3.25;2.17;;;21.20;44.60;;;;;;5134431;28;20042;-61
2022/04/13 09:05:25;;;;;;;4.20;2.70;;;21.30;44.60;;;;;;5134053;28;20068;-60
2022/04/13 09:08:16;;;;;;;4.47;2.58;;;21.30;44.50;;;;;;5134258;28;20028;-61
2022/04/13 09:10:42;;;;;;;4.45;2.40;;;21.30;44.60;;;;;;5116168;28;20030;-60
2022/04/13 09:13:10;;;;;;;3.92;2.72;;;21.30;44.60;;;;;;5134151;28;20369;-61
2022/04/13 09:15:40;;;;;;;4.22;2.90;;;21.30;44.60;;;;;;5115407;28;20050;-61
2022/04/13 09:18:09;;;;;;;6.75;3.00;;;21.30;44.80;;;;;;5133945;28;20018;-61
2022/04/13 09:20:36;;;;;;;4.15;2.40;;;21.30;44.70;;;;;;5134285;28;20031;-61
2022/04/13 09:23:03;;;;;;;5.65;2.78;;;21.30;44.80;;;;;;5133883;28;20099;-61
2022/04/13 09:25:33;;;;;;;4.53;2.45;;;21.30;44.90;;;;;;5133855;28;20098;-61
2022/04/13 09:28:00;;;;;;;4.30;2.57;;;21.30;45.00;;;;;;5134082;27;20012;-60
2022/04/13 09:30:26;;;;;;;6.32;2.97;;;21.30;45.10;;;;;;5137656;27;20469;-61
2022/04/13 09:32:52;;;;;;;5.18;2.58;;;21.30;45.20;;;;;;5137810;27;20466;-60
2022/04/13 09:35:18;;;;;;;5.78;2.72;;;21.30;45.00;;;;;;5138080;27;20031;-61
2022/04/13 09:37:44;;;;;;;4.75;2.40;;;21.30;45.10;;;;;;5139446;27;20500;-61
2022/04/13 09:40:27;;;;;;;4.13;2.60;;;21.30;45.10;;;;;;5104352;27;20046;-60
2022/04/13 09:43:06;;;;;;;6.30;2.80;;;21.30;45.00;;;;;;5122437;27;20039;-61
2022/04/13 09:45:34;;;;;;;5.10;2.85;;;21.30;45.00;;;;;;5120896;27;20120;-60
2022/04/13 09:48:04;;;;;;;4.65;2.67;;;21.30;45.00;;;;;;5138614;27;20102;-61
2022/04/13 09:50:29;;;;;;;4.97;2.50;;;21.30;44.90;;;;;;5138243;27;20035;-60
2022/04/13 09:52:57;;;;;;;4.50;2.60;;;21.30;45.10;;;;;;5103166;27;20026;-61
2022/04/13 09:55:23;;;;;;;5.68;2.70;;;21.30;45.10;;;;;;5137386;27;20102;-60
2022/04/13 09:57:49;;;;;;;3.83;2.60;;;21.30;45.20;;;;;;5119309;27;20098;-60
2022/04/13 10:00:15;;;;;;;5.43;2.90;;;21.30;45.20;;;;;;5119282;27;20007;-61
2022/04/13 10:02:42;;;;;;;4.85;2.75;;;21.30;45.20;;;;;;5119409;27;20365;-61
2022/04/13 10:05:09;;;;;;;3.78;2.50;;;21.30;45.20;;;;;;5138133;27;20064;-61
2022/04/13 10:07:35;;;;;;;3.97;2.60;;;21.30;45.10;;;;;;5137213;27;20470;-60
2022/04/13 10:10:05;;;;;;;3.70;2.38;;;21.30;45.30;;;;;;5118707;27;20507;-61
2022/04/13 10:12:47;;;;;;;4.75;2.45;;;21.30;45.40;;;;;;5137233;27;20072;-60
2022/04/13 10:15:13;;;;;;;5.63;2.70;;;21.30;45.50;;;;;;5136741;27;20076;-61
2022/04/13 10:17:40;;;;;;;4.38;2.40;;;21.30;45.50;;;;;;5118924;27;20015;-61
2022/04/13 10:20:06;;;;;;;3.40;1.90;;;21.30;45.50;;;;;;5136865;27;20373;-60
2022/04/13 10:22:31;;;;;;;5.38;2.70;;;21.30;45.60;;;;;;5136772;27;20032;-61
2022/04/13 10:25:17;;;;;;;5.10;2.67;;;21.20;45.60;;;;;;5118700;27;20023;-61
2022/04/13 10:27:59;;;;;;;5.63;3.08;;;21.20;45.70;;;;;;5137051;27;20094;-61
2022/04/13 10:30:32;;;;;;;4.65;2.67;;;21.30;45.80;;;;;;5137132;27;20015;-61
2022/04/13 10:32:59;;;;;;;5.70;2.65;;;21.20;45.90;;;;;;5137009;27;20015;-61
2022/04/13 10:35:26;;;;;;;6.20;2.60;;;21.20;46.00;;;;;;5136690;27;20103;-61
2022/04/13 10:37:52;;;;;;;5.97;2.70;;;21.20;46.10;;;;;;5137088;27;20047;-62
2022/04/13 10:40:19;;;;;;;9.65;3.03;;;21.20;46.10;;;;;;5135753;27;20007;-61
2022/04/13 10:42:46;;;;;;;4.60;2.88;;;21.10;46.30;;;;;;5118574;27;20087;-60
2022/04/13 10:45:12;;;;;;;6.65;2.90;;;21.20;46.40;;;;;;5136996;27;20043;-60
2022/04/13 10:47:54;;;;;;;4.80;3.10;;;21.10;46.50;;;;;;5084270;27;20432;-61
2022/04/13 10:50:27;;;;;;;6.18;3.15;;;21.10;46.60;;;;;;5136772;27;20019;-60
2022/04/13 10:53:05;;;;;;;5.72;3.13;;;21.10;46.60;;;;;;5136848;27;20089;-60
2022/04/13 10:55:33;;;;;;;5.35;2.88;;;21.10;46.70;;;;;;5101275;27;20138;-61
2022/04/13 10:58:37;;;;;;;5.10;2.63;;;21.10;46.70;;;;;;5118853;27;20011;-61
2022/04/13 11:01:05;;;;;;;4.68;2.95;;;21.10;46.70;;;;;;5136324;27;20025;-61
2022/04/13 11:03:35;;;;;;;5.82;2.65;;;21.10;46.80;;;;;;5136598;27;20007;-61
2022/04/13 11:06:03;;;;;;;10.35;3.10;;;21.10;46.80;;;;;;5136233;27;20072;-60
2022/04/13 11:08:55;;;;;;;5.55;2.90;;;21.10;46.80;;;;;;5117464;27;20385;-61
2022/04/13 11:11:22;;;;;;;4.68;2.90;;;21.10;46.90;;;;;;5135919;27;20015;-61
2022/04/13 11:13:49;;;;;;;9.05;2.92;;;21.10;46.80;;;;;;5100518;27;20043;-61
2022/04/13 11:16:18;;;;;;;5.00;2.90;;;21.10;46.90;;;;;;5135652;27;20021;-61
2022/04/13 11:19:06;;;;;;;4.78;3.33;;;21.10;47.10;;;;;;5135858;27;20011;-59
2022/04/13 11:21:32;;;;;;;5.80;3.13;;;21.10;47.10;;;;;;5135466;27;20196;-61
2022/04/13 11:23:58;;;;;;;6.82;3.25;;;21.10;47.00;;;;;;5135184;27;20031;-61
2022/04/13 11:26:34;;;;;;;5.97;3.03;;;21.10;46.70;;;;;;5135647;27;20026;-62
2022/04/13 11:29:21;;;;;;;7.53;2.95;;;21.10;47.00;;;;;;5135302;27;20019;-63
2022/04/13 11:32:02;;;;;;;6.18;3.03;;;21.10;46.90;;;;;;5118971;27;20018;-61
2022/04/13 11:34:36;;;;;;;4.70;3.00;;;21.10;46.80;;;;;;5135439;27;20489;-62
2022/04/13 11:37:07;;;;;;;4.97;3.22;;;21.10;46.80;;;;;;5135561;27;20038;-60
2022/04/13 11:39:56;;;;;;;5.60;3.30;;;21.10;46.90;;;;;;5135535;27;20007;-61
2022/04/13 11:42:24;;;;;;;5.25;2.95;;;21.00;46.90;;;;;;5134896;27;20030;-61
2022/04/13 11:44:51;;;;;;;5.90;3.20;;;21.00;47.00;;;;;;5135431;27;20019;-61
2022/04/13 11:47:18;;;;;;;4.93;2.97;;;21.00;47.10;;;;;;5135371;27;20013;-60
2022/04/13 11:50:00;;;;;;;5.10;2.60;;;21.00;47.20;;;;;;5135253;27;20007;-61
2022/04/13 11:52:48;;;;;;;4.20;3.00;;;20.90;47.10;;;;;;5116503;27;20064;-60
2022/04/13 11:55:17;;;;;;;5.63;3.30;;;20.90;47.30;;;;;;5134957;27;20116;-61
2022/04/13 11:58:04;;;;;;;5.90;3.13;;;20.90;47.30;;;;;;5116691;27;20027;-61
2022/04/13 12:00:37;;;;;;;5.03;2.75;;;20.90;47.40;;;;;;5134856;27;20023;-61
2022/04/13 12:03:03;;;;;;;5.68;3.50;;;20.90;47.60;;;;;;5116369;27;20556;-61
2022/04/13 12:05:29;;;;;;;3.50;3.00;;;20.90;47.60;;;;;;5099626;27;20026;-61
2022/04/13 12:07:55;;;;;;;3.95;2.80;;;20.90;47.40;;;;;;5116459;27;20008;-61
2022/04/13 12:10:24;;;;;;;8.60;3.50;;;20.80;47.60;;;;;;5099299;27;20027;-61
2022/04/13 12:12:55;;;;;;;4.05;3.10;;;20.90;47.70;;;;;;5134502;27;20011;-61
2022/04/13 12:15:20;;;;;;;4.60;3.10;;;20.90;47.80;;;;;;5134705;27;20023;-61
2022/04/13 12:17:46;;;;;;;5.28;3.10;;;20.90;47.80;;;;;;5099028;27;20488;-61
2022/04/13 12:20:28;;;;;;;9.73;3.30;;;20.90;47.80;;;;;;5134643;27;20019;-61
2022/04/13 12:22:54;;;;;;;7.47;3.63;;;20.90;48.90;;;;;;5134466;27;20055;-60
2022/04/13 12:25:20;;;;;;;8.00;3.63;;;21.00;48.90;;;;;;5135034;27;20093;-60
2022/04/13 12:28:05;;;;;;;7.78;3.13;;;20.90;48.80;;;;;;5117015;27;20542;-61
2022/04/13 12:30:31;;;;;;;5.38;3.65;;;20.80;48.90;;;;;;5135212;27;20038;-60
2022/04/13 12:32:57;;;;;;;6.25;3.85;;;20.90;48.90;;;;;;5135441;27;20015;-62
2022/04/13 12:35:23;;;;;;;9.73;3.50;;;20.90;49.00;;;;;;5135256;27;20038;-60
2022/04/13 12:37:57;;;;;;;7.15;3.22;;;20.80;48.90;;;;;;5099257;27;20022;-61
2022/04/13 12:40:27;;;;;;;8.75;3.58;;;20.90;49.20;;;;;;5116192;27;20015;-61
2022/04/13 12:42:52;;;;;;;8.27;3.40;;;20.90;49.20;;;;;;5116175;27;20019;-61
2022/04/13 12:45:21;;;;;;;4.78;3.53;;;20.90;49.20;;;;;;5116696;27;20015;-61
2022/04/13 12:47:47;;;;;;;7.50;3.58;;;20.90;49.00;;;;;;5134869;27;20014;-60
2022/04/13 12:50:14;;;;;;;6.50;3.67;;;20.90;49.10;;;;;;5134809;27;20043;-60
2022/04/13 12:52:41;;;;;;;5.65;3.03;;;21.00;48.70;;;;;;5134252;27;20546;-61